Fugaku Maru — JH3428 — position and weather

sailwx.info

Track history (hours):
 
Tides and Currents Weather Stations Pressure Air Temp Water Temp Dewpoint Dewpoint Depression Visibility Wind Speed Wind Dir Waves Ship Positions

Fugaku Maru

Last reported at 2016-Apr-30 04:14 UTC. Time now 2016-May-03 14:23 UTC.
Position N 33°55' E 135°01'.

Length 165 m; draft 7.2 m.

Type: Cargo ship. MMSI: 431200176.

Date/timePositionNaut miles runAvg speedWind from/ knotsBaromVisibWave heightAir tempDewpointWater temp
2016-Apr-30 04:14N 33°55' E 135°01'213 6.9
2016-Apr-28 21:24N 34°33' E 139°15'2220.5
2016-Apr-28 20:20N 34°42' E 139°39'1620.9
2016-Apr-28 19:33N 34°49' E 139°57'2121.0
2016-Apr-28 18:33N 35°01' E 140°18'2019.6
2016-Apr-28 17:34N 35°14' E 140°36'1919.1
2016-Apr-28 16:34N 35°30' E 140°49'2019.6
2016-Apr-28 15:33N 35°47' E 141°01'  
2016-Apr-25 23:28N 36°09' E 141°03'2020.8
2016-Apr-25 22:30N 35°50' E 140°59'1920.5
2016-Apr-25 21:33N 35°32' E 140°49'2121.3
2016-Apr-25 20:33N 35°13' E 140°36'2221.3
2016-Apr-25 19:33N 34°59' E 140°17'2120.9
2016-Apr-25 18:33N 34°48' E 139°55'2019.8
2016-Apr-25 17:32N 34°39' E 139°33'1920.0
2016-Apr-25 16:33N 34°33' E 139°11'2 0.1
2016-Apr-24 21:22N 34°32' E 139°09'1721.5
2016-Apr-24 20:33N 34°36' E 139°29'2121.4
2016-Apr-24 19:33N 34°47' E 139°52'2121.2
2016-Apr-24 18:33N 34°60' E 140°13'1919.2
2016-Apr-24 17:33N 35°09' E 140°33'2019.8
2016-Apr-24 16:33N 35°26' E 140°47'2020.3
2016-Apr-24 15:33N 35°43' E 140°59'2121.2
2016-Apr-24 14:33N 36°04' E 141°06'2121.4
2016-Apr-24 13:33N 36°25' E 141°12'2121.2
2016-Apr-24 12:33N 36°45' E 141°17'2420.8
2016-Apr-24 11:25N 37°09' E 141°23'  
2016-Apr-22 00:30N 36°07' E 140°60'2420.1
2016-Apr-21 23:20N 35°43' E 140°57'1820.1
2016-Apr-21 22:27N 35°27' E 140°48'1921.3
2016-Apr-21 21:33N 35°11' E 140°35'2221.6
2016-Apr-21 20:33N 34°56' E 140°16'2120.7
2016-Apr-21 19:33N 34°45' E 139°54'7020.3
2016-Apr-21 16:08N 34°28' E 138°32'2 0.1
2016-Apr-20 23:27N 34°29' E 138°31'5719.9
2016-Apr-20 20:33N 34°41' E 139°39'2019.9
2016-Apr-20 19:33N 34°51' E 140°00'1919.4
2016-Apr-20 18:33N 35°02' E 140°20'1817.6
2016-Apr-20 17:33N 35°14' E 140°35'2019.7
2016-Apr-20 16:33N 35°30' E 140°49'  
Track history (hours):
 
Tides and Currents Weather Stations Pressure Air Temp Water Temp Dewpoint Dewpoint Depression Visibility Wind Speed Wind Dir Waves Ship Positions

Fugaku Maru

Last reported at 2016-Apr-30 04:14 UTC. Time now 2016-May-03 14:23 UTC.
Position N 33°55' E 135°01'.

Length 165 m; draft 7.2 m.

Type: Cargo ship. MMSI: 431200176.

Date/timePositionNaut miles runAvg speedWind from/ knotsBaromVisibWave heightAir tempDewpointWater temp
2016-Apr-30 04:14N 33°55' E 135°01'213 6.9
2016-Apr-28 21:24N 34°33' E 139°15'2220.5
2016-Apr-28 20:20N 34°42' E 139°39'1620.9
2016-Apr-28 19:33N 34°49' E 139°57'2121.0
2016-Apr-28 18:33N 35°01' E 140°18'2019.6
2016-Apr-28 17:34N 35°14' E 140°36'1919.1
2016-Apr-28 16:34N 35°30' E 140°49'2019.6
2016-Apr-28 15:33N 35°47' E 141°01'  
2016-Apr-25 23:28N 36°09' E 141°03'2020.8
2016-Apr-25 22:30N 35°50' E 140°59'1920.5
2016-Apr-25 21:33N 35°32' E 140°49'2121.3
2016-Apr-25 20:33N 35°13' E 140°36'2221.3
2016-Apr-25 19:33N 34°59' E 140°17'2120.9
2016-Apr-25 18:33N 34°48' E 139°55'2019.8
2016-Apr-25 17:32N 34°39' E 139°33'1920.0
2016-Apr-25 16:33N 34°33' E 139°11'2 0.1
2016-Apr-24 21:22N 34°32' E 139°09'1721.5
2016-Apr-24 20:33N 34°36' E 139°29'2121.4
2016-Apr-24 19:33N 34°47' E 139°52'2121.2
2016-Apr-24 18:33N 34°60' E 140°13'1919.2
2016-Apr-24 17:33N 35°09' E 140°33'2019.8
2016-Apr-24 16:33N 35°26' E 140°47'2020.3
2016-Apr-24 15:33N 35°43' E 140°59'2121.2
2016-Apr-24 14:33N 36°04' E 141°06'2121.4
2016-Apr-24 13:33N 36°25' E 141°12'2121.2
2016-Apr-24 12:33N 36°45' E 141°17'2420.8
2016-Apr-24 11:25N 37°09' E 141°23'  
2016-Apr-22 00:30N 36°07' E 140°60'2420.1
2016-Apr-21 23:20N 35°43' E 140°57'1820.1
2016-Apr-21 22:27N 35°27' E 140°48'1921.3
2016-Apr-21 21:33N 35°11' E 140°35'2221.6
2016-Apr-21 20:33N 34°56' E 140°16'2120.7
2016-Apr-21 19:33N 34°45' E 139°54'7020.3
2016-Apr-21 16:08N 34°28' E 138°32'2 0.1
2016-Apr-20 23:27N 34°29' E 138°31'5719.9
2016-Apr-20 20:33N 34°41' E 139°39'2019.9
2016-Apr-20 19:33N 34°51' E 140°00'1919.4
2016-Apr-20 18:33N 35°02' E 140°20'1817.6
2016-Apr-20 17:33N 35°14' E 140°35'2019.7
2016-Apr-20 16:33N 35°30' E 140°49'  

Dump ship's entire track history